Terminal Aerodrome Forecast
Issued by NWS

Home | Current Version | Previous Version | Text Only | Print | Product List | Glossary On
Versions: 1 2 3 4 5 6 7 8 9 10 11 12 13 14 15 16 17 18
463
FTUS45 KFGZ 272340
TAFGCN
TAF
KGCN 272340Z 2800/2824 20014G21KT 2SM -SHSNRA BR SCT003 OVC015
      TEMPO 2800/2804 1/2SM SN OVC005
     FM280400 22011KT 1/2SM SN VV005
      TEMPO 2808/2812 1/4SM +SN FZFG VV002
     FM281800 24010KT 1 1/2SM -SN BR OVC004
      TEMPO 2818/2822 1/2SM SN VV002=

USA.gov is the U.S. government's official web portal to all federal, state and local government web resources and services.